Time;durP1;ratioP1;P1;durP2;ratioP2;P2;SDS_P1;SDS_P2;PMS_P1;PMS_P2;Temp;Humidity;BMP_temperature;BMP_pressure;BME280_temperature;BME280_humidity;BME280_pressure;Samples;Min_cycle;Max_cycle;Signal;HPM_P1;HPM_P2
2022/05/09 00:00:11;;;;;;;3.22;2.87;;;;;;;;;;1887048;74;26720;-52
2022/05/09 00:02:38;;;;;;;4.05;3.08;;;;;;;;;;1887356;74;26305;-41
2022/05/09 00:05:07;;;;;;;3.80;2.72;;;;;;;;;;1866021;74;26735;-50
2022/05/09 00:07:34;;;;;;;4.40;2.55;;;;;;;;;;1883611;75;26737;-45
2022/05/09 00:10:01;;;;;;;3.40;2.52;;;;;;;;;;1873354;75;26265;-44
2022/05/09 00:12:30;;;;;;;3.08;2.55;;;;;;;;;;1894189;74;26730;-46
2022/05/09 00:14:58;;;;;;;4.53;2.70;;;;;;;;;;1871941;75;26269;-47
2022/05/09 00:17:25;;;;;;;3.35;2.60;;;;;;;;;;1881765;75;26239;-46
2022/05/09 00:19:52;;;;;;;2.50;2.30;;;;;;;;;;1895421;75;26336;-42
2022/05/09 00:22:19;;;;;;;4.05;2.58;;;;;;;;;;1895597;75;26258;-46
2022/05/09 00:24:47;;;;;;;4.90;2.40;;;;;;;;;;1895437;74;26328;-48
2022/05/09 00:27:14;;;;;;;2.98;2.50;;;;;;;;;;1895100;75;26421;-45
2022/05/09 00:29:41;;;;;;;3.15;2.40;;;;;;;;;;1891658;75;26371;-46
2022/05/09 00:32:09;;;;;;;3.80;2.33;;;;;;;;;;1895506;75;26258;-44
2022/05/09 00:34:37;;;;;;;3.98;2.50;;;;;;;;;;1895330;74;26335;-44
2022/05/09 00:37:05;;;;;;;3.05;2.00;;;;;;;;;;1895491;75;26790;-43
2022/05/09 00:39:35;;;;;;;2.17;1.95;;;;;;;;;;1895236;75;26210;-42
2022/05/09 00:42:07;;;;;;;2.27;2.08;;;;;;;;;;1895396;75;26274;-43
2022/05/09 00:44:34;;;;;;;2.60;1.90;;;;;;;;;;1880865;75;26526;-45
2022/05/09 00:47:02;;;;;;;2.22;1.90;;;;;;;;;;1896007;74;26763;-47
2022/05/09 00:49:43;;;;;;;3.05;2.08;;;;;;;;;;1894263;75;26191;-45
2022/05/09 00:52:10;;;;;;;2.45;1.82;;;;;;;;;;1889756;75;26819;-46
2022/05/09 00:54:39;;;;;;;2.70;2.08;;;;;;;;;;1870911;75;26706;-44
2022/05/09 00:57:17;;;;;;;2.92;1.90;;;;;;;;;;1894859;75;26323;-43
2022/05/09 00:59:45;;;;;;;1.70;1.60;;;;;;;;;;1876758;75;26751;-46
2022/05/09 01:02:14;;;;;;;2.70;1.60;;;;;;;;;;1895565;75;26254;-47
2022/05/09 01:04:43;;;;;;;1.92;1.80;;;;;;;;;;1894990;75;26270;-44
2022/05/09 01:07:11;;;;;;;1.95;1.72;;;;;;;;;;1890845;75;26757;-45
2022/05/09 01:09:38;;;;;;;1.55;1.45;;;;;;;;;;1873711;74;26273;-44
2022/05/09 01:12:06;;;;;;;1.72;1.60;;;;;;;;;;1883672;74;26234;-43
2022/05/09 01:14:34;;;;;;;2.87;1.70;;;;;;;;;;1875624;75;26318;-43
2022/05/09 01:17:03;;;;;;;1.62;1.52;;;;;;;;;;1893508;75;26784;-45
2022/05/09 01:19:38;;;;;;;1.40;1.30;;;;;;;;;;1889750;74;26708;-46
2022/05/09 01:22:07;;;;;;;3.15;1.55;;;;;;;;;;1879861;75;26282;-44
2022/05/09 01:24:34;;;;;;;1.67;1.57;;;;;;;;;;1870099;75;26312;-43
2022/05/09 01:27:01;;;;;;;1.87;1.55;;;;;;;;;;1879783;76;26188;-50
2022/05/09 01:29:33;;;;;;;1.45;1.35;;;;;;;;;;1879990;76;26316;-47
2022/05/09 01:32:02;;;;;;;1.35;1.35;;;;;;;;;;1850860;75;26312;-44
2022/05/09 01:34:30;;;;;;;2.62;1.50;;;;;;;;;;1875785;76;26297;-47
2022/05/09 01:36:59;;;;;;;1.30;1.30;;;;;;;;;;1874639;76;26737;-43
2022/05/09 01:39:27;;;;;;;1.62;1.35;;;;;;;;;;1879868;76;26752;-42
2022/05/09 01:41:54;;;;;;;2.15;1.45;;;;;;;;;;1883051;75;26285;-42
2022/05/09 01:44:21;;;;;;;2.42;1.50;;;;;;;;;;1874792;76;26211;-47
2022/05/09 01:49:35;;;;;;;1.47;1.37;;;;;;;;;;1870231;76;26790;-46
2022/05/09 01:52:04;;;;;;;2.25;1.20;;;;;;;;;;1877184;76;26282;-46
2022/05/09 01:54:32;;;;;;;1.32;1.22;;;;;;;;;;1885963;75;26711;-43
2022/05/09 01:56:59;;;;;;;1.70;1.45;;;;;;;;;;1880315;76;26246;-43
2022/05/09 01:59:27;;;;;;;2.17;1.10;;;;;;;;;;1879619;75;26265;-46
2022/05/09 02:01:59;;;;;;;1.60;1.22;;;;;;;;;;1878851;76;26251;-47
2022/05/09 02:04:27;;;;;;;2.12;1.20;;;;;;;;;;1877668;75;26215;-43
2022/05/09 02:06:55;;;;;;;1.42;1.27;;;;;;;;;;1874446;76;26235;-44
2022/05/09 02:09:22;;;;;;;1.47;1.30;;;;;;;;;;1876743;75;26335;-45
2022/05/09 02:11:49;;;;;;;2.40;1.70;;;;;;;;;;1866709;76;26754;-47
2022/05/09 02:14:17;;;;;;;3.20;1.20;;;;;;;;;;1880184;75;26333;-47
2022/05/09 02:16:44;;;;;;;1.20;1.10;;;;;;;;;;1884559;75;26308;-46
2022/05/09 02:19:12;;;;;;;1.87;1.30;;;;;;;;;;1879121;75;26271;-45
2022/05/09 02:21:39;;;;;;;1.55;1.30;;;;;;;;;;1878136;75;26776;-45
2022/05/09 02:24:07;;;;;;;2.65;1.30;;;;;;;;;;1879168;75;27111;-50
2022/05/09 02:26:34;;;;;;;3.80;1.27;;;;;;;;;;1869380;75;26935;-42
2022/05/09 02:29:01;;;;;;;1.77;1.40;;;;;;;;;;1866054;76;26827;-48
2022/05/09 02:31:30;;;;;;;2.40;1.30;;;;;;;;;;1876574;76;27515;-50
2022/05/09 02:33:57;;;;;;;2.12;1.40;;;;;;;;;;1838404;78;26314;-46
2022/05/09 02:36:25;;;;;;;1.40;1.30;;;;;;;;;;1831846;78;26768;-43
2022/05/09 02:38:52;;;;;;;1.87;1.47;;;;;;;;;;1825208;77;26678;-46
2022/05/09 02:41:19;;;;;;;1.87;1.70;;;;;;;;;;1824064;78;26807;-42
2022/05/09 02:43:46;;;;;;;1.90;1.70;;;;;;;;;;1822065;78;26255;-51
2022/05/09 02:46:14;;;;;;;2.25;1.75;;;;;;;;;;1858305;75;26268;-47
2022/05/09 02:48:41;;;;;;;2.98;1.80;;;;;;;;;;1879985;76;26259;-42
2022/05/09 02:51:09;;;;;;;2.52;1.90;;;;;;;;;;1870880;75;26943;-45
2022/05/09 02:53:38;;;;;;;2.33;2.08;;;;;;;;;;1880202;76;26332;-48
2022/05/09 02:56:06;;;;;;;3.40;2.30;;;;;;;;;;1880517;76;26238;-49
2022/05/09 02:58:34;;;;;;;2.35;2.10;;;;;;;;;;1879062;76;26683;-49
2022/05/09 03:01:01;;;;;;;3.27;2.35;;;;;;;;;;1879322;75;26333;-49
2022/05/09 03:06:14;;;;;;;4.37;2.27;;;;;;;;;;1863558;76;27489;-45
2022/05/09 03:08:41;;;;;;;2.40;2.20;;;;;;;;;;1870237;76;26318;-45
2022/05/09 03:11:09;;;;;;;4.62;2.67;;;;;;;;;;1869756;76;26373;-45
2022/05/09 03:13:38;;;;;;;3.30;2.33;;;;;;;;;;1876784;75;26326;-43
2022/05/09 03:16:06;;;;;;;2.92;2.40;;;;;;;;;;1881437;75;26267;-43
2022/05/09 03:18:33;;;;;;;5.92;2.70;;;;;;;;;;1879350;76;26255;-43
2022/05/09 03:21:01;;;;;;;4.95;2.50;;;;;;;;;;1880241;76;26714;-45
2022/05/09 03:23:28;;;;;;;4.62;2.58;;;;;;;;;;1875841;75;26257;-49
2022/05/09 03:25:56;;;;;;;2.75;2.47;;;;;;;;;;1879339;76;26230;-47
2022/05/09 03:28:24;;;;;;;4.47;2.72;;;;;;;;;;1877599;76;26530;-43
2022/05/09 03:30:53;;;;;;;4.33;2.80;;;;;;;;;;1877387;75;26242;-47
2022/05/09 03:33:22;;;;;;;4.08;2.52;;;;;;;;;;1887825;75;26263;-46
2022/05/09 03:35:50;;;;;;;4.30;2.52;;;;;;;;;;1865901;75;26280;-48
2022/05/09 03:38:17;;;;;;;4.78;2.60;;;;;;;;;;1873454;76;26255;-45
2022/05/09 03:40:44;;;;;;;3.35;2.47;;;;;;;;;;1880092;76;26214;-45
2022/05/09 03:43:12;;;;;;;3.52;2.40;;;;;;;;;;1880244;76;26231;-44
2022/05/09 03:45:41;;;;;;;7.37;2.65;;;;;;;;;;1886257;75;26262;-44
2022/05/09 03:48:09;;;;;;;4.62;2.60;;;;;;;;;;1878470;76;25943;-42
2022/05/09 03:50:37;;;;;;;3.02;2.60;;;;;;;;;;1880197;76;26247;-45
2022/05/09 03:53:04;;;;;;;4.37;2.55;;;;;;;;;;1878980;76;26239;-44
2022/05/09 03:55:33;;;;;;;6.20;2.87;;;;;;;;;;1880183;76;26695;-47
2022/05/09 03:58:00;;;;;;;5.30;2.98;;;;;;;;;;1893456;75;26292;-43
2022/05/09 04:00:29;;;;;;;4.35;2.87;;;;;;;;;;1874241;76;26227;-44
2022/05/09 04:02:56;;;;;;;2.42;2.15;;;;;;;;;;1880092;76;26172;-43
2022/05/09 04:05:27;;;;;;;4.10;2.72;;;;;;;;;;1855541;76;26243;-44
2022/05/09 04:07:53;;;;;;;3.45;2.70;;;;;;;;;;1866393;75;26266;-44
2022/05/09 04:10:22;;;;;;;4.22;2.77;;;;;;;;;;1871041;75;26270;-47
2022/05/09 04:12:49;;;;;;;5.83;2.85;;;;;;;;;;1880258;76;26331;-49
2022/05/09 04:18:04;;;;;;;4.92;2.50;;;;;;;;;;1875398;76;26730;-48
2022/05/09 04:20:31;;;;;;;3.90;2.65;;;;;;;;;;1876573;75;26275;-51
2022/05/09 04:23:00;;;;;;;4.28;2.50;;;;;;;;;;1889622;75;26754;-47
2022/05/09 04:25:31;;;;;;;4.05;2.60;;;;;;;;;;1891920;75;26783;-43
2022/05/09 04:27:57;;;;;;;2.98;2.30;;;;;;;;;;1891169;75;26249;-46
2022/05/09 04:30:25;;;;;;;2.58;2.20;;;;;;;;;;1895645;74;26328;-42
2022/05/09 04:32:53;;;;;;;3.10;2.12;;;;;;;;;;1895068;75;26234;-49
2022/05/09 04:35:21;;;;;;;2.75;2.40;;;;;;;;;;1895256;75;26323;-45
2022/05/09 04:37:49;;;;;;;2.40;2.17;;;;;;;;;;1890291;74;26757;-49
2022/05/09 04:40:18;;;;;;;4.15;2.27;;;;;;;;;;1878225;75;26606;-42
2022/05/09 04:42:46;;;;;;;2.55;2.10;;;;;;;;;;1877035;74;26253;-49
2022/05/09 04:45:14;;;;;;;2.55;2.10;;;;;;;;;;1891220;74;26690;-46
2022/05/09 04:47:42;;;;;;;2.52;1.90;;;;;;;;;;1895504;75;26332;-42
2022/05/09 04:50:11;;;;;;;3.35;2.20;;;;;;;;;;1895684;75;26341;-42
2022/05/09 04:52:38;;;;;;;3.65;2.10;;;;;;;;;;1889853;74;26244;-43
2022/05/09 04:55:06;;;;;;;2.30;2.00;;;;;;;;;;1889705;75;26406;-43
2022/05/09 04:57:33;;;;;;;2.65;1.87;;;;;;;;;;1895511;75;26253;-48
2022/05/09 05:00:01;;;;;;;3.08;1.80;;;;;;;;;;1875727;75;26264;-42
2022/05/09 05:02:29;;;;;;;2.22;1.80;;;;;;;;;;1894678;75;26312;-42
2022/05/09 05:04:56;;;;;;;4.17;2.10;;;;;;;;;;1895668;74;26336;-46
2022/05/09 05:07:24;;;;;;;2.75;2.12;;;;;;;;;;1895765;75;26306;-43
2022/05/09 05:09:52;;;;;;;3.08;1.98;;;;;;;;;;1895559;75;26930;-44
2022/05/09 05:12:19;;;;;;;3.00;1.60;;;;;;;;;;1895579;75;26591;-47
2022/05/09 05:14:46;;;;;;;1.80;1.70;;;;;;;;;;1895480;74;26320;-45
2022/05/09 05:17:14;;;;;;;2.40;1.80;;;;;;;;;;1895441;75;26328;-49
2022/05/09 05:19:42;;;;;;;2.55;1.80;;;;;;;;;;1894966;75;26246;-50
2022/05/09 05:22:12;;;;;;;2.22;1.90;;;;;;;;;;1895126;75;26314;-45
2022/05/09 05:24:41;;;;;;;2.62;1.90;;;;;;;;;;1869292;74;26270;-41
2022/05/09 05:27:08;;;;;;;2.47;1.50;;;;;;;;;;1895076;75;26257;-46
2022/05/09 05:29:35;;;;;;;2.15;1.75;;;;;;;;;;1894111;75;26246;-44
2022/05/09 05:32:16;;;;;;;2.05;1.72;;;;;;;;;;1895365;75;26238;-47
2022/05/09 05:34:44;;;;;;;1.62;1.52;;;;;;;;;;1890178;75;26724;-46
2022/05/09 05:37:11;;;;;;;1.55;1.42;;;;;;;;;;1829145;77;26245;-45
2022/05/09 05:39:40;;;;;;;1.65;1.50;;;;;;;;;;1842716;77;26355;-42
2022/05/09 05:42:08;;;;;;;1.80;1.40;;;;;;;;;;1807777;78;26617;-46
2022/05/09 05:44:37;;;;;;;1.87;1.60;;;;;;;;;;1816226;78;26287;-46
2022/05/09 05:47:08;;;;;;;4.78;1.72;;;;;;;;;;1830451;78;26562;-44
2022/05/09 05:49:37;;;;;;;2.50;1.80;;;;;;;;;;1831141;78;27013;-51
2022/05/09 05:52:05;;;;;;;3.80;1.77;;;;;;;;;;1822076;78;26374;-50
2022/05/09 05:54:34;;;;;;;3.25;1.42;;;;;;;;;;1826699;78;26273;-43
2022/05/09 05:57:02;;;;;;;3.22;1.60;;;;;;;;;;1824140;78;26285;-43
2022/05/09 05:59:30;;;;;;;5.00;1.70;;;;;;;;;;1832024;78;26368;-45
2022/05/09 06:01:57;;;;;;;4.80;1.77;;;;;;;;;;1831974;78;26261;-44
2022/05/09 06:04:25;;;;;;;6.70;1.95;;;;;;;;;;1831956;78;26361;-46
2022/05/09 06:06:52;;;;;;;5.42;1.60;;;;;;;;;;1837331;78;26327;-45
2022/05/09 06:09:19;;;;;;;6.90;1.77;;;;;;;;;;1833877;78;26366;-42
2022/05/09 06:11:47;;;;;;;3.05;1.77;;;;;;;;;;1838520;78;26261;-46
2022/05/09 06:14:14;;;;;;;5.83;1.77;;;;;;;;;;1840858;78;26257;-42
2022/05/09 06:16:42;;;;;;;4.33;1.98;;;;;;;;;;1836921;78;26268;-44
2022/05/09 06:19:09;;;;;;;6.22;1.85;;;;;;;;;;1827470;78;26714;-43
2022/05/09 06:21:37;;;;;;;4.50;1.77;;;;;;;;;;1826889;78;26265;-47
2022/05/09 06:24:05;;;;;;;6.22;1.80;;;;;;;;;;1830942;78;26880;-48
2022/05/09 06:26:34;;;;;;;2.17;1.52;;;;;;;;;;1814130;78;26284;-43
2022/05/09 06:29:06;;;;;;;4.05;1.75;;;;;;;;;;1816373;78;26345;-42
2022/05/09 06:31:30;;;;;;;2.95;1.72;;;;;;;;;;1821641;78;26828;-43
2022/05/09 06:33:58;;;;;;;14.68;1.80;;;;;;;;;;1824895;78;26697;-47
2022/05/09 06:36:25;;;;;;;9.15;1.98;;;;;;;;;;1824346;78;26686;-44
2022/05/09 06:38:52;;;;;;;7.08;2.00;;;;;;;;;;1824735;78;26284;-46
2022/05/09 06:41:20;;;;;;;8.23;1.85;;;;;;;;;;1829345;78;26277;-49
2022/05/09 06:43:47;;;;;;;5.45;1.80;;;;;;;;;;1815934;78;26335;-47
2022/05/09 06:46:14;;;;;;;3.05;1.62;;;;;;;;;;1818623;77;26729;-45
2022/05/09 06:48:41;;;;;;;5.08;1.65;;;;;;;;;;1821895;78;26794;-42
2022/05/09 06:51:09;;;;;;;5.28;1.77;;;;;;;;;;1826988;78;26253;-44
2022/05/09 06:53:36;;;;;;;5.03;1.47;;;;;;;;;;1825177;78;26269;-44
2022/05/09 06:56:04;;;;;;;3.90;1.70;;;;;;;;;;1819424;78;27344;-43
2022/05/09 06:58:32;;;;;;;3.25;1.50;;;;;;;;;;1821490;78;26252;-43
2022/05/09 07:00:59;;;;;;;5.80;1.50;;;;;;;;;;1817415;77;26284;-46
2022/05/09 07:03:30;;;;;;;4.28;1.65;;;;;;;;;;1847092;77;26280;-43
2022/05/09 07:05:56;;;;;;;6.83;1.72;;;;;;;;;;1832813;78;26324;-43
2022/05/09 07:08:25;;;;;;;7.42;1.50;;;;;;;;;;1825366;77;26379;-49
2022/05/09 07:10:52;;;;;;;9.08;1.67;;;;;;;;;;1824508;78;26608;-44
2022/05/09 07:13:20;;;;;;;2.35;1.60;;;;;;;;;;1875602;75;26251;-47
2022/05/09 07:15:47;;;;;;;6.58;1.47;;;;;;;;;;1875722;76;26292;-45
2022/05/09 07:18:15;;;;;;;3.77;1.40;;;;;;;;;;1870562;75;26270;-46
2022/05/09 07:20:42;;;;;;;2.52;1.50;;;;;;;;;;1878548;76;26243;-43
2022/05/09 07:23:11;;;;;;;3.40;1.27;;;;;;;;;;1872332;75;26240;-42
2022/05/09 07:25:39;;;;;;;2.70;1.37;;;;;;;;;;1866916;75;26686;-45
2022/05/09 07:28:07;;;;;;;2.92;1.40;;;;;;;;;;1868715;76;26273;-47
2022/05/09 07:30:35;;;;;;;3.77;1.30;;;;;;;;;;1872775;76;26323;-42
2022/05/09 07:33:02;;;;;;;3.67;1.40;;;;;;;;;;1876122;76;26679;-43
2022/05/09 07:35:31;;;;;;;3.65;1.30;;;;;;;;;;1866733;76;26224;-42
2022/05/09 07:37:58;;;;;;;1.82;1.20;;;;;;;;;;1878799;75;26325;-47
2022/05/09 07:40:26;;;;;;;3.67;1.40;;;;;;;;;;1877463;76;26222;-47
2022/05/09 07:42:53;;;;;;;3.83;1.40;;;;;;;;;;1875988;76;26850;-45
2022/05/09 07:45:21;;;;;;;4.00;1.30;;;;;;;;;;1874378;75;26719;-44
2022/05/09 07:47:48;;;;;;;2.33;1.15;;;;;;;;;;1876083;76;26231;-43
2022/05/09 07:50:16;;;;;;;2.12;1.27;;;;;;;;;;1870016;76;26262;-44
2022/05/09 07:52:44;;;;;;;3.77;1.30;;;;;;;;;;1868097;75;26239;-43
2022/05/09 07:55:12;;;;;;;3.52;1.30;;;;;;;;;;1872661;75;26685;-47
2022/05/09 07:57:39;;;;;;;1.60;1.10;;;;;;;;;;1877717;76;26308;-46
2022/05/09 08:00:07;;;;;;;3.77;1.65;;;;;;;;;;1869688;75;26230;-51
2022/05/09 08:02:34;;;;;;;1.40;1.30;;;;;;;;;;1876337;75;26711;-48
2022/05/09 08:05:02;;;;;;;4.58;1.50;;;;;;;;;;1865319;75;26868;-46
2022/05/09 08:07:29;;;;;;;4.10;1.37;;;;;;;;;;1872283;75;26751;-43
2022/05/09 08:09:56;;;;;;;1.30;1.20;;;;;;;;;;1874257;75;26789;-44
2022/05/09 08:12:23;;;;;;;3.52;1.70;;;;;;;;;;1871255;75;26568;-47
2022/05/09 08:14:51;;;;;;;1.40;1.30;;;;;;;;;;1874773;75;26293;-43
2022/05/09 08:17:18;;;;;;;1.82;1.20;;;;;;;;;;1876240;75;26286;-47
2022/05/09 08:19:47;;;;;;;1.87;1.30;;;;;;;;;;1874669;75;26278;-46
2022/05/09 08:22:14;;;;;;;2.42;1.07;;;;;;;;;;1872084;75;26282;-44
2022/05/09 08:24:42;;;;;;;1.20;1.10;;;;;;;;;;1878512;75;27192;-45
2022/05/09 08:27:09;;;;;;;1.65;1.15;;;;;;;;;;1888084;74;26323;-43
2022/05/09 08:29:36;;;;;;;2.55;1.12;;;;;;;;;;1882060;74;26269;-43
2022/05/09 08:32:05;;;;;;;1.07;1.07;;;;;;;;;;1877529;74;26381;-43
2022/05/09 08:34:34;;;;;;;1.30;1.20;;;;;;;;;;1853664;76;26731;-44
2022/05/09 08:37:01;;;;;;;1.98;1.10;;;;;;;;;;1830512;78;26285;-45
2022/05/09 08:39:28;;;;;;;1.80;1.25;;;;;;;;;;1821023;78;26217;-45
2022/05/09 08:42:06;;;;;;;3.08;1.10;;;;;;;;;;1828552;78;26374;-44
2022/05/09 08:44:41;;;;;;;3.15;1.30;;;;;;;;;;1833288;78;26285;-42
2022/05/09 08:47:19;;;;;;;1.30;1.20;;;;;;;;;;1825138;78;26298;-43
2022/05/09 08:49:48;;;;;;;2.40;1.42;;;;;;;;;;1819972;78;26280;-46
2022/05/09 08:52:17;;;;;;;2.02;1.20;;;;;;;;;;1821496;78;26396;-41
2022/05/09 08:54:44;;;;;;;1.50;1.20;;;;;;;;;;1816658;78;26609;-44
2022/05/09 08:57:14;;;;;;;1.90;1.50;;;;;;;;;;1822047;78;26844;-45
2022/05/09 08:59:42;;;;;;;2.10;1.60;;;;;;;;;;1826531;78;26269;-45
2022/05/09 09:02:14;;;;;;;2.40;1.40;;;;;;;;;;1828397;78;26374;-47
2022/05/09 09:04:43;;;;;;;1.92;1.70;;;;;;;;;;1830897;78;27597;-46
2022/05/09 09:07:29;;;;;;;1.62;1.52;;;;;;;;;;1822337;78;26303;-44
2022/05/09 09:10:15;;;;;;;2.00;1.75;;;;;;;;;;1817349;78;26367;-44
2022/05/09 09:12:47;;;;;;;2.55;1.67;;;;;;;;;;1820330;78;26725;-48
2022/05/09 09:15:22;;;;;;;2.12;1.70;;;;;;;;;;1831419;78;26290;-48
2022/05/09 09:18:03;;;;;;;2.83;1.95;;;;;;;;;;1832431;78;26355;-46
2022/05/09 09:20:31;;;;;;;4.03;3.10;;;;;;;;;;1832520;78;26269;-48
2022/05/09 09:23:18;;;;;;;7.03;2.85;;;;;;;;;;1828508;78;26342;-43
2022/05/09 09:25:53;;;;;;;5.90;3.20;;;;;;;;;;1827411;78;26379;-48
2022/05/09 09:28:25;;;;;;;3.42;2.83;;;;;;;;;;1819420;78;26280;-50
2022/05/09 09:30:53;;;;;;;4.45;2.67;;;;;;;;;;1821639;78;26309;-50
2022/05/09 09:33:20;;;;;;;3.90;2.70;;;;;;;;;;1818091;78;26300;-45
2022/05/09 09:35:55;;;;;;;4.53;2.50;;;;;;;;;;1829506;78;26347;-45
2022/05/09 09:38:27;;;;;;;3.15;2.45;;;;;;;;;;1820805;77;26306;-47
2022/05/09 09:40:54;;;;;;;4.17;2.37;;;;;;;;;;1819162;78;26335;-43
2022/05/09 09:43:22;;;;;;;2.85;2.52;;;;;;;;;;1817863;78;27016;-45
2022/05/09 09:45:54;;;;;;;2.90;2.45;;;;;;;;;;1812872;78;26303;-48
2022/05/09 09:48:21;;;;;;;3.92;2.62;;;;;;;;;;1826735;78;26290;-49
2022/05/09 09:50:53;;;;;;;2.52;2.17;;;;;;;;;;1821796;78;27759;-47
2022/05/09 09:53:39;;;;;;;2.40;2.20;;;;;;;;;;1823169;78;27560;-46
2022/05/09 09:56:24;;;;;;;2.25;2.08;;;;;;;;;;1823507;77;26303;-50
2022/05/09 09:59:02;;;;;;;2.95;2.12;;;;;;;;;;1827878;78;26296;-45
2022/05/09 10:01:34;;;;;;;2.77;2.52;;;;;;;;;;1776832;79;26291;-45
2022/05/09 10:04:09;;;;;;;3.30;3.00;;;;;;;;;;1815266;78;26298;-43
2022/05/09 10:06:38;;;;;;;3.25;2.80;;;;;;;;;;1816609;78;26277;-43
2022/05/09 10:09:09;;;;;;;2.75;2.47;;;;;;;;;;1816657;77;26828;-44
2022/05/09 10:11:36;;;;;;;2.60;2.35;;;;;;;;;;1826398;78;26308;-43
2022/05/09 10:14:05;;;;;;;2.75;2.17;;;;;;;;;;1822193;78;27186;-51
2022/05/09 10:16:54;;;;;;;3.17;2.58;;;;;;;;;;1821535;78;26779;-44
2022/05/09 10:19:13;;;;;;;2.33;2.12;;;;;;;;;;1816485;78;26268;-49
2022/05/09 10:24:49;;;;;;;2.22;1.85;;;;;;;;;;1826308;78;26300;-50
2022/05/09 10:27:18;;;;;;;2.02;1.92;;;;;;;;;;1831420;78;26358;-46
2022/05/09 10:29:45;;;;;;;2.37;2.02;;;;;;;;;;1821889;78;26440;-45
2022/05/09 10:32:13;;;;;;;2.33;1.90;;;;;;;;;;1827226;78;26740;-44
2022/05/09 10:34:45;;;;;;;2.27;1.77;;;;;;;;;;1822246;78;26370;-41
2022/05/09 10:37:28;;;;;;;3.20;1.70;;;;;;;;;;1829698;78;26355;-45
2022/05/09 10:39:58;;;;;;;1.75;1.65;;;;;;;;;;1831528;78;26697;-46
2022/05/09 10:42:27;;;;;;;1.77;1.67;;;;;;;;;;1813685;78;26760;-48
2022/05/09 10:45:02;;;;;;;1.70;1.60;;;;;;;;;;1814844;78;26322;-49
2022/05/09 10:47:46;;;;;;;1.67;1.57;;;;;;;;;;1822129;78;26332;-44
2022/05/09 10:50:27;;;;;;;1.60;1.50;;;;;;;;;;1829680;78;26339;-43
2022/05/09 10:52:59;;;;;;;2.45;1.45;;;;;;;;;;1825071;78;26281;-43
2022/05/09 10:55:29;;;;;;;2.70;1.40;;;;;;;;;;1817343;78;26318;-47
2022/05/09 10:57:58;;;;;;;1.25;1.20;;;;;;;;;;1821772;78;26272;-46
2022/05/09 11:00:26;;;;;;;1.40;1.30;;;;;;;;;;1829514;78;26349;-47
2022/05/09 11:02:58;;;;;;;1.20;1.20;;;;;;;;;;1831473;78;26805;-45
2022/05/09 11:05:27;;;;;;;1.40;1.30;;;;;;;;;;1829873;78;26273;-47
2022/05/09 11:07:58;;;;;;;1.02;1.02;;;;;;;;;;1825882;78;26290;-44
2022/05/09 11:10:27;;;;;;;1.10;1.10;;;;;;;;;;1824940;76;26258;-42
2022/05/09 11:13:05;;;;;;;1.20;1.10;;;;;;;;;;1823795;78;26292;-47
2022/05/09 11:15:34;;;;;;;0.98;0.98;;;;;;;;;;1824186;78;26312;-49
2022/05/09 11:18:09;;;;;;;1.17;1.17;;;;;;;;;;1834989;78;26265;-45
2022/05/09 11:20:47;;;;;;;0.72;0.72;;;;;;;;;;1829020;78;26304;-47
2022/05/09 11:23:18;;;;;;;1.90;1.00;;;;;;;;;;1833822;78;26727;-43
2022/05/09 11:25:53;;;;;;;1.10;1.10;;;;;;;;;;1832709;78;26297;-50
2022/05/09 11:28:37;;;;;;;0.90;0.90;;;;;;;;;;1830213;78;26347;-48
2022/05/09 11:31:15;;;;;;;1.05;0.90;;;;;;;;;;1821571;78;26373;-44
2022/05/09 11:33:59;;;;;;;1.00;1.00;;;;;;;;;;1800798;79;26311;-41
2022/05/09 11:36:28;;;;;;;0.95;0.95;;;;;;;;;;1834149;78;26275;-47
2022/05/09 11:39:02;;;;;;;0.90;0.90;;;;;;;;;;1820964;78;26300;-47
2022/05/09 11:41:31;;;;;;;0.80;0.80;;;;;;;;;;1826107;78;26809;-45
2022/05/09 11:44:00;;;;;;;0.70;0.70;;;;;;;;;;1829937;78;26292;-45
2022/05/09 11:46:41;;;;;;;1.00;1.00;;;;;;;;;;1834015;78;26391;-50
2022/05/09 11:49:13;;;;;;;1.02;0.90;;;;;;;;;;1829949;78;26336;-49
2022/05/09 11:51:48;;;;;;;1.25;0.88;;;;;;;;;;1834569;78;27379;-44
2022/05/09 11:54:35;;;;;;;0.90;0.90;;;;;;;;;;1830472;78;26273;-44
2022/05/09 11:57:03;;;;;;;0.62;0.62;;;;;;;;;;1835733;78;26907;-50
2022/05/09 11:59:35;;;;;;;0.70;0.70;;;;;;;;;;1825354;78;26778;-47
2022/05/09 12:02:06;;;;;;;0.75;0.75;;;;;;;;;;1832411;78;26565;-44
2022/05/09 12:04:35;;;;;;;0.78;0.78;;;;;;;;;;1830715;78;26266;-51
2022/05/09 12:07:21;;;;;;;0.70;0.70;;;;;;;;;;1826594;78;26303;-46
2022/05/09 12:10:07;;;;;;;0.70;0.70;;;;;;;;;;1823674;78;26345;-50
2022/05/09 12:12:43;;;;;;;0.60;0.60;;;;;;;;;;1835629;78;26305;-48
2022/05/09 12:15:19;;;;;;;0.80;0.80;;;;;;;;;;1827697;78;26750;-48
2022/05/09 12:17:53;;;;;;;0.93;0.80;;;;;;;;;;1823675;78;26307;-47
2022/05/09 12:20:30;;;;;;;0.68;0.68;;;;;;;;;;1834045;78;26363;-45
2022/05/09 12:22:52;;;;;;;0.60;0.60;;;;;;;;;;1829522;78;26301;-46
2022/05/09 12:25:20;;;;;;;0.65;0.65;;;;;;;;;;1830643;78;26733;-42
2022/05/09 12:28:07;;;;;;;0.70;0.70;;;;;;;;;;1825439;78;26731;-45
2022/05/09 12:30:36;;;;;;;1.02;0.62;;;;;;;;;;1741719;81;26259;-47
2022/05/09 12:33:08;;;;;;;0.60;0.60;;;;;;;;;;1757789;80;26356;-47
2022/05/09 12:35:35;;;;;;;0.53;0.53;;;;;;;;;;1780813;77;26398;-49
2022/05/09 12:38:02;;;;;;;0.70;0.70;;;;;;;;;;1849020;76;26203;-45
2022/05/09 12:40:30;;;;;;;0.62;0.62;;;;;;;;;;1839745;77;26297;-42
2022/05/09 12:42:58;;;;;;;0.70;0.70;;;;;;;;;;1831122;77;26793;-45
2022/05/09 12:45:27;;;;;;;0.50;0.50;;;;;;;;;;1830145;77;26371;-45
2022/05/09 12:47:54;;;;;;;0.70;0.60;;;;;;;;;;1843354;77;26345;-43
2022/05/09 12:50:29;;;;;;;0.70;0.60;;;;;;;;;;1829618;77;26322;-43
2022/05/09 12:53:04;;;;;;;0.50;0.50;;;;;;;;;;1836105;77;26781;-47
2022/05/09 12:58:22;;;;;;;0.60;0.60;;;;;;;;;;1834991;77;26397;-49
2022/05/09 13:00:49;;;;;;;1.52;0.50;;;;;;;;;;1824994;77;26345;-45
2022/05/09 13:03:17;;;;;;;0.60;0.60;;;;;;;;;;1830416;77;26744;-43
2022/05/09 13:05:44;;;;;;;0.40;0.40;;;;;;;;;;1835159;77;26753;-43
2022/05/09 13:08:15;;;;;;;0.40;0.40;;;;;;;;;;1830499;77;26379;-46
2022/05/09 13:10:56;;;;;;;0.50;0.50;;;;;;;;;;1838058;77;26337;-48
2022/05/09 13:13:28;;;;;;;0.60;0.60;;;;;;;;;;1845141;77;26273;-49
2022/05/09 13:15:56;;;;;;;0.60;0.47;;;;;;;;;;1824859;77;26288;-47
2022/05/09 13:18:25;;;;;;;0.40;0.40;;;;;;;;;;1837357;77;26705;-47
2022/05/09 13:20:54;;;;;;;0.53;0.53;;;;;;;;;;1831579;77;26627;-50
2022/05/09 13:23:28;;;;;;;0.53;0.53;;;;;;;;;;1842665;77;26292;-44
2022/05/09 13:26:04;;;;;;;0.40;0.40;;;;;;;;;;1841681;77;26285;-42
2022/05/09 13:28:25;;;;;;;0.50;0.50;;;;;;;;;;1827212;77;26370;-46
2022/05/09 13:30:54;;;;;;;1.22;0.40;;;;;;;;;;1828831;77;26858;-45
2022/05/09 13:33:23;;;;;;;0.40;0.40;;;;;;;;;;1829612;77;26789;-43
2022/05/09 13:35:51;;;;;;;1.25;0.42;;;;;;;;;;1845142;77;26346;-45
2022/05/09 13:38:24;;;;;;;0.45;0.45;;;;;;;;;;1833692;77;26823;-50
2022/05/09 13:40:53;;;;;;;0.40;0.40;;;;;;;;;;1838158;77;26867;-44
2022/05/09 13:43:24;;;;;;;0.30;0.30;;;;;;;;;;1834662;77;26337;-43
2022/05/09 13:46:05;;;;;;;0.47;0.47;;;;;;;;;;1836121;77;26318;-46
2022/05/09 13:48:34;;;;;;;0.40;0.40;;;;;;;;;;1835831;77;26634;-47
2022/05/09 13:51:01;;;;;;;0.50;0.50;;;;;;;;;;1839030;77;26390;-44
2022/05/09 13:53:30;;;;;;;0.50;0.50;;;;;;;;;;1837429;77;26296;-48
2022/05/09 13:55:59;;;;;;;0.50;0.50;;;;;;;;;;1836456;77;26307;-44
2022/05/09 13:58:28;;;;;;;0.78;0.50;;;;;;;;;;1825954;77;26288;-47
2022/05/09 14:00:56;;;;;;;0.40;0.40;;;;;;;;;;1841465;77;26453;-44
2022/05/09 14:03:33;;;;;;;0.35;0.35;;;;;;;;;;1837311;77;26413;-49
2022/05/09 14:06:02;;;;;;;0.40;0.40;;;;;;;;;;1837830;77;27391;-48
2022/05/09 14:08:30;;;;;;;0.42;0.42;;;;;;;;;;1833801;77;26256;-44
2022/05/09 14:11:11;;;;;;;0.35;0.35;;;;;;;;;;1842390;77;26299;-45
2022/05/09 14:13:44;;;;;;;0.47;0.47;;;;;;;;;;1833065;77;26925;-45
2022/05/09 14:16:34;;;;;;;0.45;0.45;;;;;;;;;;1838459;77;26269;-44
2022/05/09 14:19:07;;;;;;;0.45;0.42;;;;;;;;;;1844402;77;26840;-49
2022/05/09 14:21:36;;;;;;;0.37;0.37;;;;;;;;;;1844509;77;26283;-48
2022/05/09 14:24:04;;;;;;;0.55;0.55;;;;;;;;;;1840773;77;26380;-52
2022/05/09 14:29:38;;;;;;;0.45;0.40;;;;;;;;;;1846631;77;26688;-43
2022/05/09 14:32:08;;;;;;;0.40;0.40;;;;;;;;;;1844175;77;26369;-48
2022/05/09 14:34:40;;;;;;;0.42;0.37;;;;;;;;;;1849948;77;26323;-50
2022/05/09 14:37:09;;;;;;;0.57;0.57;;;;;;;;;;1848175;77;26828;-43
2022/05/09 14:39:43;;;;;;;1.60;0.50;;;;;;;;;;1844892;77;26272;-40
2022/05/09 14:42:18;;;;;;;1.12;0.60;;;;;;;;;;1840408;77;26806;-43
2022/05/09 14:45:07;;;;;;;1.22;0.50;;;;;;;;;;1842643;77;26286;-51
2022/05/09 14:47:42;;;;;;;0.50;0.50;;;;;;;;;;1845876;77;26291;-46
2022/05/09 14:50:20;;;;;;;0.50;0.50;;;;;;;;;;1849506;77;26277;-45
2022/05/09 14:52:50;;;;;;;2.55;0.45;;;;;;;;;;1843291;77;26264;-44
2022/05/09 14:58:21;;;;;;;0.60;0.50;;;;;;;;;;1840273;77;26418;-46
2022/05/09 15:01:02;;;;;;;0.50;0.47;;;;;;;;;;1843690;77;26312;-41
2022/05/09 15:03:32;;;;;;;7.62;0.98;;;;;;;;;;1843251;77;26287;-42
2022/05/09 15:06:00;;;;;;;0.50;0.50;;;;;;;;;;1843780;77;26331;-50
2022/05/09 15:08:28;;;;;;;0.60;0.60;;;;;;;;;;1841373;77;26742;-45
2022/05/09 15:10:57;;;;;;;0.62;0.53;;;;;;;;;;1842561;77;26916;-44
2022/05/09 15:13:26;;;;;;;0.75;0.40;;;;;;;;;;1841304;77;27026;-49
2022/05/09 15:15:54;;;;;;;1.40;0.65;;;;;;;;;;1844801;77;26299;-44
2022/05/09 15:18:22;;;;;;;1.07;0.45;;;;;;;;;;1846018;77;26268;-46